createdAt,value
2023-03-24T00:10:12.526Z,4934.61256
2023-03-24T00:25:14.524Z,4760.30329
2023-03-24T00:40:16.614Z,4752.3095
2023-03-24T00:55:18.717Z,4363.91724
2023-03-24T01:10:20.809Z,3816.58849
2023-03-24T01:25:22.811Z,3455.43395
2023-03-24T01:40:24.945Z,3111.60027
2023-03-24T01:55:27.066Z,2531.30642
2023-03-24T02:10:29.154Z,2260.38389
2023-03-24T02:25:31.175Z,2705.54545
2023-03-24T02:40:33.227Z,2804.75771
2023-03-24T02:55:35.327Z,2705.54545
2023-03-24T03:10:37.664Z,2841.36599
2023-03-24T03:25:39.646Z,3381.12355
2023-03-24T03:40:41.675Z,3770.81995
2023-03-24T03:55:43.895Z,3635.19638
2023-03-24T04:10:46.013Z,3495.98567
2023-03-24T04:25:48.057Z,3283.06313
2023-03-24T04:40:50.056Z,2827.17335
2023-03-24T04:55:52.161Z,2508.86576
2023-03-24T05:10:54.155Z,2847.08302
2023-03-24T05:25:56.192Z,2669.81184
2023-03-24T05:40:58.238Z,2526.78623
2023-03-24T05:56:00.290Z,2402.37742
2023-03-24T06:11:02.258Z,2282.25857
2023-03-24T06:26:04.307Z,2145.56533
2023-03-24T06:41:06.317Z,2111.9408
2023-03-24T06:56:08.387Z,1810.6211
2023-03-24T07:11:10.485Z,1670.60262
2023-03-24T07:26:12.513Z,1618.99363
2023-03-24T07:41:14.519Z,1579.24156
2023-03-24T07:56:16.729Z,1360.57743
2023-03-24T08:11:18.746Z,1399.60486
2023-03-24T08:26:20.745Z,1538.04397
2023-03-24T08:41:22.981Z,1446.83078
2023-03-24T08:56:25.031Z,1409.36306
2023-03-24T09:11:27.096Z,1381.83645
2023-03-24T09:26:29.206Z,1355.3645
2023-03-24T09:41:32.553Z,1310.18569
2023-03-24T09:56:36.544Z,1278.22996
2023-03-24T10:11:38.559Z,1194.09333
2023-03-24T10:26:40.697Z,1137.46031
2023-03-24T10:41:42.781Z,1230.43529
2023-03-24T10:56:45.035Z,1299.35772
2023-03-24T11:11:47.110Z,1154.16037
2023-03-24T11:26:49.219Z,1090.13918
2023-03-24T11:41:51.268Z,1139.29197
2023-03-24T11:56:53.490Z,1288.70725
2023-03-24T12:11:55.531Z,1413.58693
2023-03-24T12:26:57.543Z,1606.12989
2023-03-24T12:41:59.605Z,1452.77259
2023-03-24T12:57:01.603Z,1345.05754
2023-03-24T13:12:03.633Z,1284.02955
2023-03-24T13:27:05.680Z,1523.14366
2023-03-24T13:42:07.722Z,1759.95074
2023-03-24T13:57:09.804Z,2212.66665
2023-03-24T14:12:11.975Z,2344.65668
2023-03-24T14:27:13.980Z,2752.91881
2023-03-24T14:42:16.016Z,3204.9835
2023-03-24T14:57:18.232Z,3290.69816
2023-03-24T15:12:20.237Z,3522.09134
2023-03-24T15:27:22.278Z,3801.20936
2023-03-24T15:42:24.481Z,4077.8103
2023-03-24T15:57:26.652Z,4579.28854
2023-03-24T16:12:28.802Z,4947.55297
2023-03-24T16:27:30.816Z,5447.54626
2023-03-24T16:42:32.896Z,5648.70315
2023-03-24T16:57:35.735Z,6175.66877
2023-03-24T17:12:39.420Z,6654.90935
2023-03-24T17:27:41.503Z,7201.0183
2023-03-24T17:42:45.798Z,7690.21788
2023-03-24T17:57:48.527Z,7994.35078
2023-03-24T18:12:50.893Z,8179.19126
2023-03-24T18:27:52.941Z,8317.41417
2023-03-24T18:42:55.097Z,8143.8854
2023-03-24T18:57:57.130Z,8435.1719
2023-03-24T19:12:59.169Z,7994.35078
2023-03-24T19:28:01.165Z,8906.37346
2023-03-24T19:43:03.143Z,9809.3593
2023-03-24T19:58:05.210Z,10198.19876
2023-03-24T20:13:07.339Z,10179.85667
2023-03-24T20:28:09.381Z,9758.62124
2023-03-24T20:43:11.597Z,9800.86635
2023-03-24T20:58:13.629Z,9544.68857
2023-03-24T21:13:16.908Z,9136.40085
2023-03-24T21:28:19.249Z,8504.88406
2023-03-24T21:43:21.280Z,7587.13186
2023-03-24T21:58:23.383Z,6844.01499
2023-03-24T22:13:25.399Z,7369.79215
2023-03-24T22:28:27.484Z,6996.2922
2023-03-24T22:43:29.548Z,7057.35709
2023-03-24T22:58:31.634Z,6528.25884
2023-03-24T23:13:33.678Z,6923.54788
2023-03-24T23:28:35.743Z,6189.17488
2023-03-24T23:43:37.732Z,5159.52651
2023-03-24T23:58:40.000Z,4531.62581
